Irmo, SC

7:37 AM EDT on March 30, 2015 (GMT -0400)
Ascot | | Change Station
CLOSE
Current Station
Personal Weather Station
Location: Irmo, SC
Elevation: 328 ft
Nearby Weather Stations

Elev 328 ft 34.14 °N, 81.17 °W | Updated 51 seconds ago

Partly Cloudy
Partly Cloudy
45.5 °F
Feels Like 46 °F
N
0.0
Wind Variable Wind from SW
Gusts 5.0 mph

Today
High -- | Low -- °F
--% Chance of Precip.
Yesterday
High -- | Low -- °F
Precip. -- in
7:15 AM 7:43 PM
Waxing Gibbous, 79% visible
Pressure 30.16 in
Visibility 10.0 miles
Clouds Few 6000 ft
Scattered Clouds 15000 ft
Windchill 46 °F
Dew Point 37 °F
Humidity 72%
Rainfall 0.00 in
Snow Depth Not available.
UV 0 out of 12
Pollen 8.60 out of 12
Air Quality Not available.
Flu Activity Not available.
METAR KCAE 301056Z 22007KT 10SM FEW060 SCT150 07/01 A3016 RMK AO2 SLP212 T00720011

More Conditions Fewer Conditions

Pressure 30.16 in
Visibility 10.0 miles
Clouds Few 6000 ft
Scattered Clouds 15000 ft
Windchill 46 °F
Dew Point 37 °F
Humidity 72%
Rainfall 0.00 in
Snow Depth Not available.
UV 0 out of 12
Pollen 8.60 out of 12
Air Quality Not available.
Flu Activity Not available.
METAR KCAE 301056Z 22007KT 10SM FEW060 SCT150 07/01 A3016 RMK AO2 SLP212 T00720011

More Conditions Fewer Conditions

10-Day Weather Forecast

Almanac

Astronomy

Mar. 30, 2015 Rise Set
Actual Time
Civil Twilight
Nautical Twilight
Astronomical Twilight
Moon
Length of Visible Light
Length of Day
Tomorrow will be .
, % of the Moon is Illuminated

Today's Extremes

State Highs State Lows

Community

WunderPhotos

Upload Photos

1,809,457 photos uploaded!

WunderBlogs® & News

Nearby

Air Quality

  Air Quality AQ Index Pollutant
Not available.

Snow Depth

Station Depth Elevation

Earthquake Activity

City Distance Mag. Time & Date
Minimum magnitude displayed is 2.5.

Coastal Water Temperatures

Place Temperature

Stations

Nearby Weather Stations

Station Location Temp. Windchill Dew Point Humidity Wind Precip. Elev Updated Type